createdAt,value
2022-12-09T00:04:38.970Z,51.90
2022-12-09T00:09:45.014Z,52.40
2022-12-09T00:14:50.819Z,45.80
2022-12-09T00:19:56.501Z,45.40
2022-12-09T00:25:02.738Z,46.50
2022-12-09T00:30:11.640Z,52.30
2022-12-09T00:35:18.010Z,51.40
2022-12-09T00:40:23.947Z,46.50
2022-12-09T00:45:30.075Z,41.30
2022-12-09T00:50:35.954Z,50.70
2022-12-09T00:55:42.108Z,47.70
2022-12-09T01:00:48.207Z,46.90
2022-12-09T01:05:54.503Z,46.20
2022-12-09T01:11:00.596Z,44.60
2022-12-09T01:16:15.848Z,49.30
2022-12-09T01:21:22.150Z,50.10
2022-12-09T01:26:28.222Z,48.10
2022-12-09T01:31:34.536Z,43.50
2022-12-09T01:36:42.271Z,45.10
2022-12-09T01:41:51.285Z,57.20
2022-12-09T01:46:59.003Z,48.70
2022-12-09T01:52:13.610Z,51.00
2022-12-09T01:57:19.805Z,51.90
2022-12-09T02:02:30.917Z,52.10
2022-12-09T02:07:38.358Z,49.80
2022-12-09T02:12:54.529Z,56.00
2022-12-09T02:18:07.778Z,52.50
2022-12-09T02:23:20.095Z,48.50
2022-12-09T02:28:58.004Z,60.20
2022-12-09T02:34:17.420Z,81.00
2022-12-09T02:39:30.524Z,78.00
2022-12-09T02:44:38.979Z,70.30
2022-12-09T02:49:48.380Z,57.40
2022-12-09T02:54:55.389Z,54.70
2022-12-09T03:00:01.733Z,50.80
2022-12-09T03:05:16.967Z,52.70
2022-12-09T03:10:28.974Z,60.60
2022-12-09T03:15:37.783Z,54.10
2022-12-09T03:20:46.223Z,44.10
2022-12-09T03:25:54.367Z,47.90
2022-12-09T03:31:05.578Z,51.80
2022-12-09T03:36:14.786Z,54.50
2022-12-09T03:41:27.061Z,53.40
2022-12-09T03:46:33.267Z,48.10
2022-12-09T03:51:44.481Z,55.80
2022-12-09T03:56:54.447Z,62.50
2022-12-09T04:02:01.243Z,82.00
2022-12-09T04:07:08.082Z,58.10
2022-12-09T04:12:20.517Z,53.60
2022-12-09T04:17:26.606Z,67.40
2022-12-09T04:22:32.406Z,70.50
2022-12-09T04:27:38.392Z,64.30
2022-12-09T04:32:44.309Z,51.90
2022-12-09T04:37:50.435Z,58.00
2022-12-09T04:42:57.381Z,49.20
2022-12-09T04:48:03.358Z,53.10
2022-12-09T04:53:10.358Z,56.70
2022-12-09T04:58:16.378Z,68.40
2022-12-09T05:03:22.534Z,62.70
2022-12-09T05:08:31.699Z,61.30
2022-12-09T05:13:38.703Z,44.30
2022-12-09T05:18:45.684Z,57.30
2022-12-09T05:23:51.826Z,67.80
2022-12-09T05:28:57.899Z,57.30
2022-12-09T05:34:03.847Z,49.40
2022-12-09T05:39:10.524Z,47.50
2022-12-09T05:44:16.616Z,53.40
2022-12-09T05:49:23.023Z,53.20
2022-12-09T05:54:29.554Z,54.80
2022-12-09T05:59:36.072Z,56.50
2022-12-09T06:04:42.193Z,52.40
2022-12-09T06:09:48.272Z,55.90
2022-12-09T06:14:54.951Z,56.20
2022-12-09T06:20:01.078Z,57.30
2022-12-09T06:25:09.160Z,74.60
2022-12-09T06:30:16.186Z,72.10
2022-12-09T06:35:22.257Z,64.00
2022-12-09T06:40:28.404Z,71.80
2022-12-09T06:45:35.499Z,90.90
2022-12-09T06:50:42.789Z,104.00
2022-12-09T06:55:48.899Z,97.90
2022-12-09T07:00:55.153Z,84.40
2022-12-09T07:06:01.785Z,115.60
2022-12-09T07:11:08.276Z,84.40
2022-12-09T07:16:14.322Z,95.00
2022-12-09T07:21:22.717Z,118.00
2022-12-09T07:26:30.309Z,133.90
2022-12-09T07:31:37.381Z,124.80
2022-12-09T07:36:43.384Z,122.40
2022-12-09T07:41:53.871Z,119.30
2022-12-09T07:47:00.223Z,117.20
2022-12-09T07:52:06.511Z,100.80
2022-12-09T07:57:12.573Z,94.10
2022-12-09T08:02:18.384Z,81.00
2022-12-09T08:07:24.701Z,69.90
2022-12-09T08:12:30.851Z,65.00
2022-12-09T08:17:36.865Z,69.30
2022-12-09T08:22:43.500Z,65.20
2022-12-09T08:27:49.387Z,59.40
2022-12-09T08:32:55.724Z,55.60
2022-12-09T08:38:02.280Z,57.60
2022-12-09T08:43:09.638Z,66.50
2022-12-09T08:48:15.963Z,59.60
2022-12-09T08:53:22.187Z,54.60
2022-12-09T08:58:28.125Z,55.60
2022-12-09T09:03:34.599Z,60.70
2022-12-09T09:08:41.674Z,63.90
2022-12-09T09:13:51.789Z,87.40
2022-12-09T09:18:57.729Z,63.30
2022-12-09T09:24:10.455Z,61.60
2022-12-09T09:29:19.034Z,66.50
2022-12-09T09:34:26.122Z,69.70
2022-12-09T09:39:32.183Z,68.10
2022-12-09T09:44:41.176Z,109.90
2022-12-09T09:49:54.420Z,65.80
2022-12-09T09:55:13.202Z,63.50
2022-12-09T10:00:27.131Z,71.10
2022-12-09T10:05:36.180Z,61.30
2022-12-09T10:10:52.510Z,61.00
2022-12-09T10:16:09.375Z,62.80
2022-12-09T10:21:18.843Z,67.30
2022-12-09T10:26:27.502Z,62.30
2022-12-09T10:31:33.649Z,60.30
2022-12-09T10:36:43.292Z,58.30
2022-12-09T10:42:12.142Z,59.20
2022-12-09T10:47:26.386Z,69.40
2022-12-09T10:52:43.145Z,70.20
2022-12-09T10:57:49.269Z,59.20
2022-12-09T11:02:56.808Z,62.60
2022-12-09T11:08:04.171Z,60.30
2022-12-09T11:13:20.197Z,61.20
2022-12-09T11:18:29.141Z,61.90
2022-12-09T11:23:35.716Z,57.20
2022-12-09T11:28:42.098Z,62.40
2022-12-09T11:33:54.247Z,62.70
2022-12-09T11:39:18.534Z,62.80
2022-12-09T11:44:30.209Z,66.60
2022-12-09T11:49:43.741Z,63.70
2022-12-09T11:55:04.055Z,63.10
2022-12-09T12:00:19.244Z,61.40
2022-12-09T12:05:29.699Z,59.90
2022-12-09T12:10:40.836Z,61.90
2022-12-09T12:15:55.670Z,66.60
2022-12-09T12:21:20.121Z,63.90
2022-12-09T12:26:28.960Z,60.20
2022-12-09T12:31:51.675Z,61.30
2022-12-09T12:37:07.864Z,63.20
2022-12-09T12:42:25.741Z,65.40
2022-12-09T12:47:40.097Z,65.50
2022-12-09T12:52:57.267Z,63.20
2022-12-09T12:58:10.722Z,67.30
2022-12-09T13:03:24.623Z,59.40
2022-12-09T13:08:37.344Z,72.50
2022-12-09T13:13:48.585Z,72.10
2022-12-09T13:18:58.741Z,72.50
2022-12-09T13:24:26.489Z,74.60
2022-12-09T13:29:43.184Z,73.60
2022-12-09T13:34:54.483Z,73.20
2022-12-09T13:40:01.025Z,84.50
2022-12-09T13:45:14.550Z,83.60
2022-12-09T13:50:31.146Z,90.50
2022-12-09T13:55:49.492Z,88.50
2022-12-09T14:01:12.616Z,83.20
2022-12-09T14:06:24.092Z,75.60
2022-12-09T14:11:47.290Z,85.60
2022-12-09T14:16:54.484Z,102.20
2022-12-09T14:22:31.000Z,118.50
2022-12-09T14:27:37.266Z,123.60
2022-12-09T14:32:56.098Z,128.70
2022-12-09T14:38:15.425Z,139.80
2022-12-09T14:43:35.985Z,165.80
2022-12-09T14:48:46.336Z,169.50
2022-12-09T14:53:57.018Z,184.40
2022-12-09T14:59:07.123Z,180.20
2022-12-09T15:04:24.275Z,210.40
2022-12-09T15:09:30.232Z,210.90
2022-12-09T15:14:37.441Z,176.40
2022-12-09T15:20:00.479Z,152.10
2022-12-09T15:25:16.698Z,135.70
2022-12-09T15:30:25.388Z,154.20
2022-12-09T15:35:33.812Z,149.70
2022-12-09T15:41:05.252Z,170.40
2022-12-09T15:46:13.258Z,154.80
2022-12-09T15:51:22.072Z,139.60
2022-12-09T15:56:33.119Z,153.60
2022-12-09T16:01:39.169Z,141.40
2022-12-09T16:06:45.678Z,146.80
2022-12-09T16:11:53.766Z,178.30
2022-12-09T16:17:02.148Z,253.60
2022-12-09T16:22:17.475Z,247.70
2022-12-09T16:27:25.791Z,199.90
2022-12-09T16:32:38.987Z,184.20
2022-12-09T16:38:06.313Z,190.90
2022-12-09T16:43:24.192Z,183.30
2022-12-09T16:48:30.932Z,160.90
2022-12-09T16:53:45.900Z,121.10
2022-12-09T16:58:52.836Z,124.70
2022-12-09T17:04:04.150Z,131.40
2022-12-09T17:09:11.935Z,150.10
2022-12-09T17:14:18.172Z,150.20
2022-12-09T17:19:24.120Z,153.10
2022-12-09T17:24:30.209Z,150.90
2022-12-09T17:29:37.247Z,183.40
2022-12-09T17:34:43.250Z,123.20
2022-12-09T17:39:55.633Z,108.00
2022-12-09T17:45:03.433Z,99.60
2022-12-09T17:50:11.047Z,102.50
2022-12-09T17:55:17.508Z,97.10
2022-12-09T18:00:24.187Z,111.70
2022-12-09T18:05:29.978Z,132.50
2022-12-09T18:10:36.156Z,120.70
2022-12-09T18:15:41.997Z,99.20
2022-12-09T18:20:47.920Z,94.50
2022-12-09T18:25:53.812Z,136.40
2022-12-09T18:30:59.617Z,141.30
2022-12-09T18:36:11.649Z,131.30
2022-12-09T18:41:24.648Z,124.30
2022-12-09T18:46:33.153Z,102.80
2022-12-09T18:51:40.589Z,103.70
2022-12-09T18:56:46.561Z,126.00
2022-12-09T19:01:53.615Z,113.40
2022-12-09T19:07:00.741Z,108.10
2022-12-09T19:12:38.401Z,108.00
2022-12-09T19:17:34.014Z,122.40
2022-12-09T19:22:39.966Z,120.60
2022-12-09T19:27:47.062Z,115.50
2022-12-09T19:32:53.681Z,106.60
2022-12-09T19:38:01.555Z,106.80
2022-12-09T19:43:08.586Z,109.30
2022-12-09T19:48:15.025Z,120.80
2022-12-09T19:53:20.742Z,109.20
2022-12-09T19:58:26.446Z,103.00
2022-12-09T20:03:32.247Z,99.70
2022-12-09T20:08:38.739Z,100.10
2022-12-09T20:13:45.465Z,104.30
2022-12-09T20:18:55.125Z,95.50
2022-12-09T20:24:02.882Z,94.70
2022-12-09T20:29:11.056Z,101.40
2022-12-09T20:34:18.125Z,100.30
2022-12-09T20:39:24.419Z,99.80
2022-12-09T20:44:32.293Z,98.30
2022-12-09T20:49:38.549Z,97.70
2022-12-09T20:54:44.358Z,118.10
2022-12-09T20:59:50.275Z,142.70
2022-12-09T21:04:56.193Z,138.00
2022-12-09T21:10:02.175Z,95.00
2022-12-09T21:15:10.521Z,100.10
2022-12-09T21:20:44.373Z,99.40
2022-12-09T21:25:50.766Z,102.10
2022-12-09T21:30:56.851Z,97.80
2022-12-09T21:36:04.137Z,96.60
2022-12-09T21:41:12.385Z,103.00
2022-12-09T21:46:20.089Z,99.00
2022-12-09T21:51:26.646Z,91.70
2022-12-09T21:56:35.757Z,102.50
2022-12-09T22:01:43.146Z,94.60
2022-12-09T22:06:50.613Z,92.90
2022-12-09T22:11:56.532Z,110.00
2022-12-09T22:17:02.430Z,104.70
2022-12-09T22:22:09.309Z,101.30
2022-12-09T22:27:16.062Z,100.90
2022-12-09T22:32:22.026Z,109.40
2022-12-09T22:37:44.193Z,116.50
2022-12-09T22:42:50.305Z,109.30
2022-12-09T22:57:39.833Z,104.50
2022-12-09T23:02:45.575Z,100.40
2022-12-09T23:07:51.954Z,96.30
2022-12-09T23:12:58.564Z,108.00
2022-12-09T23:18:04.552Z,100.60
2022-12-09T23:23:10.642Z,91.70
2022-12-09T23:28:16.929Z,111.40
2022-12-09T23:33:22.749Z,115.90
2022-12-09T23:38:28.580Z,102.90
2022-12-09T23:43:35.668Z,98.20
2022-12-09T23:48:41.446Z,116.20
2022-12-09T23:53:49.008Z,107.30
2022-12-09T23:58:57.740Z,104.20
